الصفحة الرئيسية
METAR-TAF:

METAR-TAF

مطار :

مطار كلميم

كلميم, المغرب

دائرة عرض: 29-01-00N, خط طول: 10-04-04W, ارتفاع: 301 متر

METAR: مفقودة

زمن: 04:39 (03:39 UTC)

توقعات

تاريخ ووقت الإصدار 4ساعات و 39 دقيقة قبل الساعة 23:00UTC
التوقعات صالحة من27 الساعة 00 UTC إلى 28 الساعة 06 UTC
ريح 9 عقدة من الغرب
الرؤية: 8000 متر

TAF: GMAG 262300Z 2700/2806 28009KT 8000 NSC

أرصاد الطقس والتوقعات من أكثر من 4000 مطار (تقارير الطقس للمطار METAR والتنبؤ بالطقس بالمطارTAF).

المحطات المتاحة هي النقط الصفراء والحمراء على الخريطة.

حرك المؤشر فوق النقطة لمعرفة اسم المحطة.

ثم انقر لمعرفة أرصاد وتوقعات الطقس.

لتغيير الخارطة: اضغط على الأزرار الخضراء مع رمز الصليب الأسود للتكبير. على الزر الأخضر مع شرطة للتصغير، أو على الأسهم الخضراء للخرائط المجاورة.


METAR-TAF: